createdAt,value
2018-04-29T00:00:42.800Z,21.90
2018-04-29T00:03:10.358Z,21.90
2018-04-29T00:05:37.916Z,22.00
2018-04-29T00:08:05.489Z,22.00
2018-04-29T00:10:33.293Z,22.00
2018-04-29T00:13:00.923Z,22.00
2018-04-29T00:15:28.553Z,22.00
2018-04-29T00:17:56.982Z,22.00
2018-04-29T00:20:24.536Z,22.00
2018-04-29T00:22:52.143Z,22.00
2018-04-29T00:25:19.679Z,22.00
2018-04-29T00:27:47.328Z,22.00
2018-04-29T00:30:14.905Z,21.90
2018-04-29T00:32:42.475Z,22.00
2018-04-29T00:35:11.911Z,22.00
2018-04-29T00:37:39.512Z,21.90
2018-04-29T00:40:07.073Z,21.90
2018-04-29T00:42:35.374Z,21.90
2018-04-29T00:45:03.753Z,21.90
2018-04-29T00:47:33.146Z,21.90
2018-04-29T00:50:00.748Z,21.90
2018-04-29T00:52:28.338Z,21.90
2018-04-29T00:54:55.862Z,22.00
2018-04-29T00:57:23.410Z,22.00
2018-04-29T00:59:50.970Z,22.00
2018-04-29T01:02:18.509Z,22.00
2018-04-29T01:04:46.602Z,21.90
2018-04-29T01:07:14.133Z,21.90
2018-04-29T01:09:41.665Z,21.90
2018-04-29T01:12:09.595Z,21.90
2018-04-29T01:14:37.148Z,21.90
2018-04-29T01:17:04.784Z,21.90
2018-04-29T01:19:32.293Z,21.90
2018-04-29T01:22:00.191Z,21.90
2018-04-29T01:24:27.729Z,21.90
2018-04-29T01:26:55.299Z,21.90
2018-04-29T01:29:22.868Z,21.80
2018-04-29T01:31:50.414Z,21.80
2018-04-29T01:34:17.954Z,21.80
2018-04-29T01:36:45.516Z,21.80
2018-04-29T01:39:13.338Z,21.70
2018-04-29T01:41:40.907Z,21.70
2018-04-29T01:44:09.220Z,21.60
2018-04-29T01:46:36.766Z,21.60
2018-04-29T01:49:05.299Z,21.70
2018-04-29T01:51:32.866Z,21.60
2018-04-29T01:54:00.524Z,21.60
2018-04-29T01:56:28.812Z,21.60
2018-04-29T01:58:56.375Z,21.60
2018-04-29T02:01:23.917Z,21.60
2018-04-29T02:03:51.496Z,21.60
2018-04-29T02:06:19.367Z,21.60
2018-04-29T02:08:46.951Z,21.60
2018-04-29T02:11:14.510Z,21.60
2018-04-29T02:13:42.827Z,21.50
2018-04-29T02:16:10.401Z,21.50
2018-04-29T02:18:37.947Z,21.50
2018-04-29T02:21:05.571Z,21.50
2018-04-29T02:23:33.460Z,21.50
2018-04-29T02:26:01.031Z,21.50
2018-04-29T02:28:29.473Z,21.50
2018-04-29T02:30:57.051Z,21.40
2018-04-29T02:33:24.822Z,21.40
2018-04-29T02:35:53.358Z,21.40
2018-04-29T02:38:21.657Z,21.30
2018-04-29T02:40:49.269Z,21.30
2018-04-29T02:43:17.079Z,21.30
2018-04-29T02:45:44.705Z,21.20
2018-04-29T02:48:13.152Z,21.20
2018-04-29T02:50:40.767Z,21.20
2018-04-29T02:53:09.434Z,21.10
2018-04-29T02:55:37.581Z,21.10
2018-04-29T02:58:05.163Z,21.10
2018-04-29T03:00:33.700Z,21.10
2018-04-29T03:03:02.390Z,21.10
2018-04-29T03:05:29.952Z,21.00
2018-04-29T03:07:57.507Z,20.90
2018-04-29T03:10:25.190Z,20.90
2018-04-29T03:12:52.804Z,20.90
2018-04-29T03:15:20.357Z,20.90
2018-04-29T03:17:48.681Z,20.80
2018-04-29T03:20:17.013Z,20.80
2018-04-29T03:22:44.612Z,20.70
2018-04-29T03:25:12.199Z,20.70
2018-04-29T03:27:40.200Z,20.60
2018-04-29T03:30:08.010Z,20.60
2018-04-29T03:32:35.551Z,20.60
2018-04-29T03:35:03.102Z,20.50
2018-04-29T03:37:31.437Z,20.50
2018-04-29T03:39:58.978Z,20.50
2018-04-29T03:42:26.555Z,20.40
2018-04-29T03:44:54.088Z,20.30
2018-04-29T03:47:21.822Z,20.20
2018-04-29T03:49:49.406Z,20.20
2018-04-29T03:52:16.965Z,20.20
2018-04-29T03:54:45.273Z,20.20
2018-04-29T03:57:37.625Z,20.10
2018-04-29T04:03:21.820Z,20.00
2018-04-29T04:05:49.366Z,20.10
2018-04-29T04:08:17.805Z,20.10
2018-04-29T04:10:45.329Z,20.00
2018-04-29T04:13:13.667Z,20.00
2018-04-29T04:15:41.244Z,19.90
2018-04-29T04:18:09.250Z,20.00
2018-04-29T04:20:37.634Z,20.00
2018-04-29T04:23:05.197Z,20.00
2018-04-29T04:25:32.745Z,20.00
2018-04-29T04:28:00.693Z,20.00
2018-04-29T04:30:28.237Z,20.00
2018-04-29T04:32:55.775Z,20.00
2018-04-29T04:35:24.105Z,20.00
2018-04-29T04:37:51.635Z,20.00
2018-04-29T04:40:19.367Z,20.00
2018-04-29T04:42:47.620Z,20.00
2018-04-29T04:45:15.857Z,20.00
2018-04-29T04:47:43.440Z,20.10
2018-04-29T04:50:11.758Z,20.10
2018-04-29T04:52:39.397Z,20.10
2018-04-29T04:55:09.047Z,20.10
2018-04-29T04:57:36.745Z,20.10
2018-04-29T05:00:04.375Z,20.20
2018-04-29T05:02:31.901Z,20.20
2018-04-29T05:04:59.723Z,20.20
2018-04-29T05:07:27.403Z,20.20
2018-04-29T05:09:55.013Z,20.20
2018-04-29T05:12:22.577Z,20.30
2018-04-29T05:14:50.119Z,20.30
2018-04-29T05:17:17.819Z,20.30
2018-04-29T05:19:45.382Z,20.40
2018-04-29T05:22:13.105Z,20.40
2018-04-29T05:24:40.627Z,20.40
2018-04-29T05:27:08.948Z,20.40
2018-04-29T05:29:36.587Z,20.50
2018-04-29T05:32:05.706Z,20.50
2018-04-29T05:34:33.275Z,20.50
2018-04-29T05:37:00.854Z,20.50
2018-04-29T05:39:28.394Z,20.50
2018-04-29T05:41:57.731Z,20.60
2018-04-29T05:44:25.341Z,20.60
2018-04-29T05:46:52.915Z,20.60
2018-04-29T05:49:20.477Z,20.60
2018-04-29T05:51:48.018Z,20.70
2018-04-29T05:54:15.582Z,20.70
2018-04-29T05:56:43.166Z,20.70
2018-04-29T05:59:11.666Z,20.80
2018-04-29T06:01:39.270Z,20.80
2018-04-29T06:04:07.788Z,20.90
2018-04-29T06:06:35.365Z,20.80
2018-04-29T06:09:03.888Z,20.90
2018-04-29T06:11:31.466Z,20.90
2018-04-29T06:13:59.067Z,20.90
2018-04-29T06:16:26.601Z,21.00
2018-04-29T06:18:54.149Z,21.00
2018-04-29T06:21:21.797Z,21.00
2018-04-29T06:23:49.359Z,21.10
2018-04-29T06:26:19.511Z,21.10
2018-04-29T06:28:47.378Z,21.10
2018-04-29T06:31:14.942Z,21.20
2018-04-29T06:33:42.500Z,21.20
2018-04-29T06:36:10.161Z,21.20
2018-04-29T06:38:37.820Z,21.20
2018-04-29T06:41:05.693Z,21.30
2018-04-29T06:43:33.269Z,21.30
2018-04-29T06:46:01.684Z,21.40
2018-04-29T06:48:29.261Z,21.40
2018-04-29T06:50:57.124Z,21.50
2018-04-29T06:53:25.494Z,21.60
2018-04-29T06:55:54.458Z,21.60
2018-04-29T06:58:22.009Z,21.70
2018-04-29T07:00:49.645Z,21.70
2018-04-29T07:03:17.930Z,21.80
2018-04-29T07:05:46.587Z,21.80
2018-04-29T07:08:14.240Z,21.90
2018-04-29T07:10:41.783Z,21.90
2018-04-29T07:13:10.137Z,22.10
2018-04-29T07:15:38.243Z,22.10
2018-04-29T07:18:05.842Z,22.20
2018-04-29T07:20:33.410Z,22.20
2018-04-29T07:23:01.043Z,22.30
2018-04-29T07:25:28.603Z,22.30
2018-04-29T07:27:56.183Z,22.40
2018-04-29T07:30:23.758Z,22.40
2018-04-29T07:32:51.825Z,22.50
2018-04-29T07:35:19.449Z,22.60
2018-04-29T07:37:47.006Z,22.60
2018-04-29T07:40:14.558Z,22.60
2018-04-29T07:42:42.116Z,22.70
2018-04-29T07:45:09.711Z,22.80
2018-04-29T07:47:37.278Z,22.80
2018-04-29T07:50:06.093Z,22.90
2018-04-29T07:52:33.685Z,22.90
2018-04-29T07:55:01.224Z,22.90
2018-04-29T07:57:28.817Z,23.00
2018-04-29T07:59:57.833Z,23.10
2018-04-29T08:02:25.442Z,23.10
2018-04-29T08:04:52.992Z,23.10
2018-04-29T08:07:20.545Z,23.20
2018-04-29T08:09:48.131Z,23.20
2018-04-29T08:12:15.714Z,23.20
2018-04-29T08:14:43.245Z,23.30
2018-04-29T08:17:10.992Z,23.30
2018-04-29T08:19:38.528Z,23.30
2018-04-29T08:22:06.197Z,23.40
2018-04-29T08:24:34.803Z,23.50
2018-04-29T08:27:02.692Z,23.50
2018-04-29T08:29:30.267Z,23.60
2018-04-29T08:31:58.574Z,23.80
2018-04-29T08:34:27.050Z,23.70
2018-04-29T08:36:55.761Z,23.80
2018-04-29T08:39:23.316Z,23.90
2018-04-29T08:41:51.853Z,24.00
2018-04-29T08:44:19.354Z,24.00
2018-04-29T08:46:47.322Z,24.10
2018-04-29T08:49:15.082Z,24.20
2018-04-29T08:51:42.679Z,24.20
2018-04-29T08:54:10.212Z,24.30
2018-04-29T08:56:37.772Z,24.40
2018-04-29T08:59:05.290Z,24.40
2018-04-29T09:01:32.997Z,24.50
2018-04-29T09:04:00.699Z,24.50
2018-04-29T09:06:28.387Z,24.60
2018-04-29T09:08:56.703Z,24.70
2018-04-29T09:11:24.327Z,24.70
2018-04-29T09:13:51.886Z,24.80
2018-04-29T09:16:20.177Z,25.00
2018-04-29T09:18:47.724Z,25.00
2018-04-29T09:21:16.936Z,25.10
2018-04-29T09:23:46.159Z,25.10
2018-04-29T09:26:13.696Z,25.20
2018-04-29T09:28:41.317Z,25.30
2018-04-29T09:31:08.918Z,25.30
2018-04-29T09:33:42.006Z,25.40
2018-04-29T09:36:09.595Z,25.50
2018-04-29T09:38:37.153Z,25.50
2018-04-29T09:41:04.734Z,25.50
2018-04-29T09:43:32.349Z,25.60
2018-04-29T09:46:00.638Z,25.60
2018-04-29T09:48:28.194Z,25.70
2018-04-29T09:50:55.718Z,25.80
2018-04-29T09:53:23.304Z,25.90
2018-04-29T09:55:52.045Z,26.00
2018-04-29T09:58:19.599Z,26.00
2018-04-29T10:00:49.906Z,26.10
2018-04-29T10:03:19.996Z,26.10
2018-04-29T10:05:47.555Z,26.20
2018-04-29T10:08:15.909Z,26.30
2018-04-29T10:10:45.322Z,26.40
2018-04-29T10:13:13.403Z,26.30
2018-04-29T10:15:40.916Z,26.40
2018-04-29T10:18:08.477Z,26.50
2018-04-29T10:20:36.264Z,26.60
2018-04-29T10:23:03.828Z,26.60
2018-04-29T10:25:32.120Z,26.80
2018-04-29T10:28:00.455Z,26.90
2018-04-29T10:30:28.710Z,26.80
2018-04-29T10:32:56.232Z,27.00
2018-04-29T10:35:23.818Z,27.00
2018-04-29T10:37:52.101Z,27.10
2018-04-29T10:40:19.622Z,27.10
2018-04-29T10:42:47.272Z,27.10
2018-04-29T10:45:14.837Z,27.20
2018-04-29T10:47:44.046Z,27.40
2018-04-29T10:50:11.563Z,27.40
2018-04-29T10:52:39.120Z,27.40
2018-04-29T10:55:06.931Z,27.50
2018-04-29T10:57:35.360Z,27.50
2018-04-29T11:00:02.933Z,27.60
2018-04-29T11:02:30.473Z,27.70
2018-04-29T11:04:58.035Z,27.80
2018-04-29T11:07:25.581Z,27.80
2018-04-29T11:09:53.176Z,27.90
2018-04-29T11:12:20.770Z,28.00
2018-04-29T11:14:48.569Z,28.00
2018-04-29T11:17:16.114Z,28.10
2018-04-29T11:19:44.429Z,28.20
2018-04-29T11:22:12.039Z,28.20
2018-04-29T11:24:40.737Z,28.30
2018-04-29T11:27:08.303Z,28.40
2018-04-29T11:29:35.849Z,28.40
2018-04-29T11:32:04.174Z,28.60
2018-04-29T11:34:33.404Z,28.60
2018-04-29T11:37:00.962Z,28.60
2018-04-29T11:39:28.504Z,28.70
2018-04-29T11:41:56.043Z,28.80
2018-04-29T11:44:23.590Z,28.80
2018-04-29T11:46:51.283Z,28.90
2018-04-29T11:49:18.840Z,28.90
2018-04-29T11:51:47.183Z,28.90
2018-04-29T11:54:14.737Z,28.90
2018-04-29T11:56:42.325Z,29.00
2018-04-29T11:59:09.855Z,29.10
2018-04-29T12:01:37.419Z,29.20
2018-04-29T12:04:06.018Z,29.30
2018-04-29T12:06:33.557Z,29.30
2018-04-29T12:09:02.826Z,29.40
2018-04-29T12:11:32.163Z,29.30
2018-04-29T12:13:59.739Z,29.40
2018-04-29T12:16:27.297Z,29.40
2018-04-29T12:18:54.846Z,29.40
2018-04-29T12:21:22.658Z,29.40
2018-04-29T12:23:50.248Z,29.50
2018-04-29T12:26:17.774Z,29.50
2018-04-29T12:28:46.287Z,29.60
2018-04-29T12:31:14.640Z,29.60
2018-04-29T12:33:42.256Z,29.60
2018-04-29T12:36:10.544Z,29.70
2018-04-29T12:38:38.075Z,29.70
2018-04-29T12:41:06.110Z,29.90
2018-04-29T12:43:33.767Z,29.90
2018-04-29T12:46:01.401Z,30.00
2018-04-29T12:48:29.069Z,30.10
2018-04-29T12:50:56.586Z,30.10
2018-04-29T12:53:24.304Z,30.20
2018-04-29T12:55:51.869Z,30.20
2018-04-29T12:58:19.408Z,30.10
2018-04-29T13:00:46.984Z,30.30
2018-04-29T13:03:14.510Z,30.40
2018-04-29T13:05:42.302Z,30.40
2018-04-29T13:08:09.874Z,30.40
2018-04-29T13:10:37.456Z,30.60
2018-04-29T13:13:05.828Z,30.70
2018-04-29T13:15:33.345Z,30.80
2018-04-29T13:18:01.031Z,30.80
2018-04-29T13:20:28.612Z,30.90
2018-04-29T13:22:57.676Z,31.00
2018-04-29T13:25:25.338Z,31.00
2018-04-29T13:27:52.885Z,31.10
2018-04-29T13:30:20.417Z,31.10
2018-04-29T13:32:49.045Z,31.20
2018-04-29T13:35:16.597Z,31.20
2018-04-29T13:37:44.877Z,31.20
2018-04-29T13:40:12.453Z,31.30
2018-04-29T13:42:40.639Z,31.30
2018-04-29T13:45:08.180Z,31.40
2018-04-29T13:47:35.713Z,31.40
2018-04-29T13:50:04.449Z,31.50
2018-04-29T13:52:32.396Z,31.50
2018-04-29T13:54:59.950Z,31.60
2018-04-29T13:57:27.501Z,31.60
2018-04-29T13:59:55.346Z,31.70
2018-04-29T14:02:22.917Z,31.80
2018-04-29T14:04:50.466Z,31.80
2018-04-29T14:07:18.907Z,32.00
2018-04-29T14:09:46.598Z,31.90
2018-04-29T14:12:14.325Z,32.00
2018-04-29T14:14:42.582Z,32.10
2018-04-29T14:17:10.178Z,32.20
2018-04-29T14:19:37.792Z,32.20
2018-04-29T14:22:05.903Z,32.20
2018-04-29T14:24:33.425Z,32.30
2018-04-29T14:27:01.210Z,32.30
2018-04-29T14:29:28.759Z,32.30
2018-04-29T14:31:56.336Z,32.30
2018-04-29T14:34:23.887Z,32.30
2018-04-29T14:36:51.567Z,32.30
2018-04-29T14:39:19.121Z,32.30
2018-04-29T14:41:46.708Z,32.20
2018-04-29T14:44:14.571Z,32.20
2018-04-29T14:46:42.111Z,32.10
2018-04-29T14:49:09.639Z,32.10
2018-04-29T14:51:37.194Z,32.10
2018-04-29T14:54:04.741Z,32.10
2018-04-29T14:56:32.277Z,32.00
2018-04-29T14:59:00.265Z,31.90
2018-04-29T15:01:27.940Z,31.90
2018-04-29T15:03:55.546Z,31.90
2018-04-29T15:06:23.068Z,31.80
2018-04-29T15:08:50.601Z,31.80
2018-04-29T15:11:19.134Z,31.80
2018-04-29T15:13:46.652Z,31.80
2018-04-29T15:16:14.247Z,31.80
2018-04-29T15:18:53.673Z,31.80
2018-04-29T15:21:21.526Z,31.80
2018-04-29T15:23:49.905Z,31.70
2018-04-29T15:26:18.338Z,31.70
2018-04-29T15:28:45.907Z,31.70
2018-04-29T15:31:14.287Z,31.70
2018-04-29T15:33:41.843Z,31.70
2018-04-29T15:36:09.453Z,31.80
2018-04-29T15:38:37.175Z,31.80
2018-04-29T15:41:05.807Z,31.90
2018-04-29T15:43:33.398Z,32.00
2018-04-29T15:46:01.272Z,32.00
2018-04-29T15:48:29.595Z,32.10
2018-04-29T15:50:57.799Z,32.10
2018-04-29T15:53:26.353Z,32.20
2018-04-29T15:55:54.766Z,32.40
2018-04-29T15:58:22.309Z,32.30
2018-04-29T16:00:49.936Z,32.40
2018-04-29T16:03:17.473Z,32.40
2018-04-29T16:05:45.005Z,32.50
2018-04-29T16:08:13.186Z,32.50
2018-04-29T16:10:40.738Z,32.60
2018-04-29T16:13:08.283Z,32.60
2018-04-29T16:15:35.845Z,32.60
2018-04-29T16:18:03.519Z,32.70
2018-04-29T16:20:31.102Z,32.70
2018-04-29T16:22:58.726Z,32.70
2018-04-29T16:25:27.553Z,32.80
2018-04-29T16:27:55.178Z,32.70
2018-04-29T16:30:23.217Z,32.70
2018-04-29T16:32:51.629Z,32.50
2018-04-29T16:35:19.653Z,32.50
2018-04-29T16:37:49.838Z,32.50
2018-04-29T16:40:17.376Z,32.50
2018-04-29T16:42:44.963Z,32.40
2018-04-29T16:45:12.725Z,32.40
2018-04-29T16:47:41.285Z,32.30
2018-04-29T16:50:09.427Z,32.30
2018-04-29T16:52:37.146Z,32.20
2018-04-29T16:55:04.685Z,32.10
2018-04-29T16:57:32.979Z,32.00
2018-04-29T17:00:00.488Z,31.90
2018-04-29T17:02:28.013Z,31.80
2018-04-29T17:04:56.386Z,31.70
2018-04-29T17:07:24.298Z,31.50
2018-04-29T17:09:52.639Z,31.30
2018-04-29T17:12:20.172Z,31.20
2018-04-29T17:14:48.681Z,31.10
2018-04-29T17:17:16.441Z,31.00
2018-04-29T17:19:44.003Z,30.80
2018-04-29T17:22:11.629Z,30.70
2018-04-29T17:24:40.964Z,30.30
2018-04-29T17:27:08.666Z,30.30
2018-04-29T17:29:37.043Z,30.00
2018-04-29T17:32:04.570Z,30.00
2018-04-29T17:34:32.204Z,29.80
2018-04-29T17:36:59.807Z,29.60
2018-04-29T17:39:27.375Z,29.50
2018-04-29T17:41:54.945Z,29.30
2018-04-29T17:44:24.744Z,29.00
2018-04-29T17:46:52.315Z,29.00
2018-04-29T17:49:19.915Z,28.90
2018-04-29T17:51:47.521Z,28.80
2018-04-29T17:54:15.598Z,28.70
2018-04-29T17:56:43.121Z,28.60
2018-04-29T17:59:10.685Z,28.50
2018-04-29T18:01:39.153Z,28.40
2018-04-29T18:04:06.754Z,28.30
2018-04-29T18:06:34.335Z,28.20
2018-04-29T18:09:01.870Z,28.00
2018-04-29T18:11:29.736Z,28.00
2018-04-29T18:13:57.269Z,27.90
2018-04-29T18:16:24.872Z,27.90
2018-04-29T18:18:52.395Z,27.80
2018-04-29T18:21:20.481Z,27.70
2018-04-29T18:23:48.050Z,27.60
2018-04-29T18:26:15.601Z,27.50
2018-04-29T18:28:43.425Z,27.50
2018-04-29T18:31:11.748Z,27.40
2018-04-29T18:33:39.321Z,27.40
2018-04-29T18:36:06.915Z,27.30
2018-04-29T18:38:35.221Z,27.20
2018-04-29T18:41:03.678Z,27.10
2018-04-29T18:43:31.893Z,27.10
2018-04-29T18:46:01.315Z,27.00
2018-04-29T18:48:29.785Z,27.00
2018-04-29T18:50:59.151Z,27.00
2018-04-29T18:53:29.437Z,26.80
2018-04-29T18:55:58.322Z,26.80
2018-04-29T18:58:27.050Z,26.80
2018-04-29T19:00:55.407Z,26.70
2018-04-29T19:03:23.622Z,26.60
2018-04-29T19:06:00.376Z,26.60
2018-04-29T19:08:29.711Z,26.50
2018-04-29T19:10:58.418Z,26.50
2018-04-29T19:13:27.024Z,26.50
2018-04-29T19:15:56.862Z,26.40
2018-04-29T19:18:25.466Z,26.30
2018-04-29T19:20:54.353Z,26.30
2018-04-29T19:23:22.891Z,26.30
2018-04-29T19:25:51.617Z,26.30
2018-04-29T19:28:21.081Z,26.20
2018-04-29T19:30:49.725Z,26.20
2018-04-29T19:33:17.598Z,26.20
2018-04-29T19:35:45.128Z,26.20
2018-04-29T19:38:12.684Z,26.10
2018-04-29T19:40:41.015Z,26.00
2018-04-29T19:43:09.105Z,26.00
2018-04-29T19:45:36.643Z,26.00
2018-04-29T19:48:04.402Z,25.90
2018-04-29T19:50:31.986Z,25.90
2018-04-29T19:52:59.537Z,25.80
2018-04-29T19:55:27.103Z,25.80
2018-04-29T19:57:55.553Z,25.80
2018-04-29T20:00:23.553Z,25.70
2018-04-29T20:15:46.359Z,25.70
2018-04-29T20:18:13.953Z,25.00
2018-04-29T20:20:41.491Z,24.90
2018-04-29T20:23:09.258Z,24.90
2018-04-29T20:25:36.808Z,24.90
2018-04-29T20:28:05.021Z,24.90
2018-04-29T20:30:32.550Z,24.90
2018-04-29T20:33:00.117Z,25.00
2018-04-29T20:35:27.697Z,25.00
2018-04-29T20:37:55.310Z,25.00
2018-04-29T20:40:22.937Z,25.00
2018-04-29T20:42:50.511Z,25.00
2018-04-29T20:45:18.847Z,24.90
2018-04-29T20:47:46.455Z,24.90
2018-04-29T20:50:14.581Z,24.90
2018-04-29T20:52:42.135Z,24.90
2018-04-29T20:55:09.689Z,24.90
2018-04-29T20:57:37.319Z,24.90
2018-04-29T21:00:06.114Z,24.80
2018-04-29T21:02:33.775Z,24.80
2018-04-29T21:05:01.357Z,24.80
2018-04-29T21:07:29.333Z,24.80
2018-04-29T21:09:57.295Z,24.80
2018-04-29T21:12:24.905Z,24.80
2018-04-29T21:14:53.438Z,24.80
2018-04-29T21:17:21.172Z,24.80
2018-04-29T21:19:48.699Z,24.80
2018-04-29T21:22:16.565Z,24.80
2018-04-29T21:24:44.100Z,24.80
2018-04-29T21:27:12.912Z,24.70
2018-04-29T21:29:40.997Z,24.80
2018-04-29T21:32:08.574Z,24.70
2018-04-29T21:34:36.953Z,24.70
2018-04-29T21:37:05.609Z,24.70
2018-04-29T21:39:33.131Z,24.60
2018-04-29T21:42:00.670Z,24.60
2018-04-29T21:44:28.324Z,24.60
2018-04-29T21:46:56.211Z,24.50
2018-04-29T21:49:23.969Z,24.50
2018-04-29T21:51:51.654Z,24.50
2018-04-29T21:54:19.325Z,24.50
2018-04-29T21:56:49.064Z,24.50
2018-04-29T21:59:16.974Z,24.40
2018-04-29T22:01:44.662Z,24.40
2018-04-29T22:04:12.923Z,24.40
2018-04-29T22:06:40.566Z,24.40
2018-04-29T22:09:08.886Z,24.30
2018-04-29T22:11:37.005Z,24.30
2018-04-29T22:14:05.912Z,24.30
2018-04-29T22:16:34.381Z,24.30
2018-04-29T22:19:03.046Z,24.20
2018-04-29T22:21:32.130Z,24.20
2018-04-29T22:23:59.694Z,24.20
2018-04-29T22:26:27.217Z,24.20
2018-04-29T22:28:56.511Z,24.20
2018-04-29T22:31:24.079Z,24.20
2018-04-29T22:33:51.630Z,24.20
2018-04-29T22:36:20.934Z,24.10
2018-04-29T22:38:50.405Z,24.10
2018-04-29T22:41:19.151Z,24.10
2018-04-29T22:43:46.673Z,24.00
2018-04-29T22:46:14.240Z,24.00
2018-04-29T22:48:41.852Z,24.00
2018-04-29T22:51:09.607Z,23.90
2018-04-29T22:53:37.227Z,23.90
2018-04-29T22:56:04.783Z,23.90
2018-04-29T22:58:32.484Z,23.90
2018-04-29T23:01:00.018Z,23.90
2018-04-29T23:03:27.607Z,23.80
2018-04-29T23:05:55.194Z,23.90
2018-04-29T23:08:22.754Z,23.80
2018-04-29T23:10:50.425Z,23.80
2018-04-29T23:13:18.578Z,23.80
2018-04-29T23:15:46.867Z,23.80
2018-04-29T23:18:16.297Z,23.70
2018-04-29T23:20:44.589Z,23.60
2018-04-29T23:23:12.157Z,23.60
2018-04-29T23:25:40.497Z,23.60
2018-04-29T23:28:15.691Z,23.50
2018-04-29T23:30:44.070Z,23.50
2018-04-29T23:33:11.609Z,23.50
2018-04-29T23:35:39.312Z,23.50
2018-04-29T23:38:07.357Z,23.50
2018-04-29T23:40:35.365Z,23.40
2018-04-29T23:43:04.214Z,23.40
2018-04-29T23:45:31.980Z,23.30
2018-04-29T23:47:59.534Z,23.30
2018-04-29T23:50:27.082Z,23.30
2018-04-29T23:52:54.752Z,23.30
2018-04-29T23:55:22.269Z,23.30
2018-04-29T23:57:49.836Z,23.20
